sensor_id;sensor_type;location;lat;lon;timestamp;P1;durP1;ratioP1;P2;durP2;ratioP2
18574;SDS011;9417;16.484;102.872;2022-10-16T00:00:16;17.88;;;13.73;;
18574;SDS011;9417;16.484;102.872;2022-10-16T00:02:23;17.50;;;13.27;;
18574;SDS011;9417;16.484;102.872;2022-10-16T00:04:30;19.35;;;14.30;;
18574;SDS011;9417;16.484;102.872;2022-10-16T00:06:37;16.27;;;14.07;;
18574;SDS011;9417;16.484;102.872;2022-10-16T00:08:44;16.60;;;13.48;;
18574;SDS011;9417;16.484;102.872;2022-10-16T00:10:52;19.02;;;14.55;;
18574;SDS011;9417;16.484;102.872;2022-10-16T00:13:06;16.48;;;13.70;;
18574;SDS011;9417;16.484;102.872;2022-10-16T00:15:13;15.57;;;12.60;;
18574;SDS011;9417;16.484;102.872;2022-10-16T00:17:20;17.63;;;13.18;;
18574;SDS011;9417;16.484;102.872;2022-10-16T00:19:27;15.00;;;12.07;;
18574;SDS011;9417;16.484;102.872;2022-10-16T00:21:34;16.08;;;11.50;;
18574;SDS011;9417;16.484;102.872;2022-10-16T00:23:41;14.23;;;11.68;;
18574;SDS011;9417;16.484;102.872;2022-10-16T00:25:55;16.25;;;10.90;;
18574;SDS011;9417;16.484;102.872;2022-10-16T00:28:03;15.25;;;11.00;;
18574;SDS011;9417;16.484;102.872;2022-10-16T00:30:11;14.93;;;10.68;;
18574;SDS011;9417;16.484;102.872;2022-10-16T00:32:19;14.32;;;10.88;;
18574;SDS011;9417;16.484;102.872;2022-10-16T00:34:26;14.85;;;10.45;;
18574;SDS011;9417;16.484;102.872;2022-10-16T00:36:33;14.07;;;10.38;;
18574;SDS011;9417;16.484;102.872;2022-10-16T00:38:40;16.42;;;11.10;;
18574;SDS011;9417;16.484;102.872;2022-10-16T00:40:47;16.20;;;11.23;;
18574;SDS011;9417;16.484;102.872;2022-10-16T00:42:55;15.23;;;11.40;;
18574;SDS011;9417;16.484;102.872;2022-10-16T00:45:03;16.08;;;11.13;;
18574;SDS011;9417;16.484;102.872;2022-10-16T00:47:11;13.68;;;10.43;;
18574;SDS011;9417;16.484;102.872;2022-10-16T00:49:23;12.90;;;10.02;;
18574;SDS011;9417;16.484;102.872;2022-10-16T00:51:30;14.93;;;10.70;;
18574;SDS011;9417;16.484;102.872;2022-10-16T00:53:39;15.02;;;10.63;;
18574;SDS011;9417;16.484;102.872;2022-10-16T00:55:46;15.68;;;10.77;;
18574;SDS011;9417;16.484;102.872;2022-10-16T00:57:53;14.50;;;10.52;;
18574;SDS011;9417;16.484;102.872;2022-10-16T01:00:04;15.43;;;10.45;;
18574;SDS011;9417;16.484;102.872;2022-10-16T01:02:13;15.98;;;11.43;;
18574;SDS011;9417;16.484;102.872;2022-10-16T01:04:21;16.45;;;9.93;;
18574;SDS011;9417;16.484;102.872;2022-10-16T01:06:31;15.40;;;10.48;;
18574;SDS011;9417;16.484;102.872;2022-10-16T01:08:46;15.43;;;10.23;;
18574;SDS011;9417;16.484;102.872;2022-10-16T01:10:59;19.55;;;10.68;;
18574;SDS011;9417;16.484;102.872;2022-10-16T01:13:14;16.55;;;10.65;;
18574;SDS011;9417;16.484;102.872;2022-10-16T01:15:26;13.90;;;10.50;;
18574;SDS011;9417;16.484;102.872;2022-10-16T01:17:38;14.07;;;10.27;;
18574;SDS011;9417;16.484;102.872;2022-10-16T01:19:57;16.42;;;11.40;;
18574;SDS011;9417;16.484;102.872;2022-10-16T01:22:12;15.73;;;10.80;;
18574;SDS011;9417;16.484;102.872;2022-10-16T01:24:23;15.40;;;10.75;;
18574;SDS011;9417;16.484;102.872;2022-10-16T01:26:44;14.85;;;11.43;;
18574;SDS011;9417;16.484;102.872;2022-10-16T01:29:01;15.43;;;10.75;;
18574;SDS011;9417;16.484;102.872;2022-10-16T01:31:13;15.55;;;11.40;;
18574;SDS011;9417;16.484;102.872;2022-10-16T01:33:24;14.18;;;10.73;;
18574;SDS011;9417;16.484;102.872;2022-10-16T01:35:41;15.45;;;10.52;;
18574;SDS011;9417;16.484;102.872;2022-10-16T01:37:53;13.85;;;10.70;;
18574;SDS011;9417;16.484;102.872;2022-10-16T01:40:03;14.13;;;10.95;;
18574;SDS011;9417;16.484;102.872;2022-10-16T01:42:16;15.98;;;10.70;;
18574;SDS011;9417;16.484;102.872;2022-10-16T01:44:30;16.45;;;10.90;;
18574;SDS011;9417;16.484;102.872;2022-10-16T01:46:39;16.15;;;11.38;;
18574;SDS011;9417;16.484;102.872;2022-10-16T01:48:49;13.05;;;11.18;;
18574;SDS011;9417;16.484;102.872;2022-10-16T01:50:59;19.20;;;11.48;;
18574;SDS011;9417;16.484;102.872;2022-10-16T01:55:17;17.55;;;11.50;;
18574;SDS011;9417;16.484;102.872;2022-10-16T01:57:28;15.88;;;11.25;;
18574;SDS011;9417;16.484;102.872;2022-10-16T01:59:40;15.00;;;11.48;;
18574;SDS011;9417;16.484;102.872;2022-10-16T02:01:50;16.55;;;11.30;;
18574;SDS011;9417;16.484;102.872;2022-10-16T02:04:02;15.18;;;11.93;;
18574;SDS011;9417;16.484;102.872;2022-10-16T02:06:14;15.02;;;11.52;;
18574;SDS011;9417;16.484;102.872;2022-10-16T02:08:21;14.80;;;10.43;;
18574;SDS011;9417;16.484;102.872;2022-10-16T02:10:31;14.63;;;11.65;;
18574;SDS011;9417;16.484;102.872;2022-10-16T02:12:40;15.25;;;11.05;;
18574;SDS011;9417;16.484;102.872;2022-10-16T02:14:54;13.68;;;11.90;;
18574;SDS011;9417;16.484;102.872;2022-10-16T02:17:01;15.68;;;10.68;;
18574;SDS011;9417;16.484;102.872;2022-10-16T02:19:16;13.70;;;11.50;;
18574;SDS011;9417;16.484;102.872;2022-10-16T02:21:25;13.25;;;11.20;;
18574;SDS011;9417;16.484;102.872;2022-10-16T02:23:35;14.63;;;11.60;;
18574;SDS011;9417;16.484;102.872;2022-10-16T02:25:49;15.13;;;11.30;;
18574;SDS011;9417;16.484;102.872;2022-10-16T02:27:59;14.18;;;10.30;;
18574;SDS011;9417;16.484;102.872;2022-10-16T02:30:13;13.63;;;10.90;;
18574;SDS011;9417;16.484;102.872;2022-10-16T02:32:25;12.85;;;11.00;;
18574;SDS011;9417;16.484;102.872;2022-10-16T02:34:36;15.05;;;10.70;;
18574;SDS011;9417;16.484;102.872;2022-10-16T02:36:44;14.48;;;10.73;;
18574;SDS011;9417;16.484;102.872;2022-10-16T02:38:54;13.77;;;11.32;;
18574;SDS011;9417;16.484;102.872;2022-10-16T02:41:01;15.93;;;10.95;;
18574;SDS011;9417;16.484;102.872;2022-10-16T02:43:10;17.27;;;11.23;;
18574;SDS011;9417;16.484;102.872;2022-10-16T02:45:20;17.05;;;12.00;;
18574;SDS011;9417;16.484;102.872;2022-10-16T02:47:28;15.88;;;10.90;;
18574;SDS011;9417;16.484;102.872;2022-10-16T02:49:35;13.35;;;10.60;;
18574;SDS011;9417;16.484;102.872;2022-10-16T02:51:42;16.30;;;11.30;;
18574;SDS011;9417;16.484;102.872;2022-10-16T02:53:49;13.35;;;10.32;;
18574;SDS011;9417;16.484;102.872;2022-10-16T02:55:56;12.35;;;10.18;;
18574;SDS011;9417;16.484;102.872;2022-10-16T02:58:03;15.57;;;10.32;;
18574;SDS011;9417;16.484;102.872;2022-10-16T03:00:11;12.98;;;10.70;;
18574;SDS011;9417;16.484;102.872;2022-10-16T03:02:21;15.35;;;11.02;;
18574;SDS011;9417;16.484;102.872;2022-10-16T03:04:28;15.65;;;11.02;;
18574;SDS011;9417;16.484;102.872;2022-10-16T03:06:35;14.07;;;11.63;;
18574;SDS011;9417;16.484;102.872;2022-10-16T03:08:42;19.05;;;10.98;;
18574;SDS011;9417;16.484;102.872;2022-10-16T03:10:49;14.05;;;11.18;;
18574;SDS011;9417;16.484;102.872;2022-10-16T03:12:57;16.10;;;11.02;;
18574;SDS011;9417;16.484;102.872;2022-10-16T03:15:04;13.60;;;11.13;;
18574;SDS011;9417;16.484;102.872;2022-10-16T03:17:12;16.65;;;11.45;;
18574;SDS011;9417;16.484;102.872;2022-10-16T03:19:22;14.90;;;10.90;;
18574;SDS011;9417;16.484;102.872;2022-10-16T03:21:29;15.80;;;11.18;;
18574;SDS011;9417;16.484;102.872;2022-10-16T03:23:36;13.45;;;10.77;;
18574;SDS011;9417;16.484;102.872;2022-10-16T03:25:43;13.52;;;10.63;;
18574;SDS011;9417;16.484;102.872;2022-10-16T03:27:50;14.38;;;10.77;;
18574;SDS011;9417;16.484;102.872;2022-10-16T03:29:58;16.63;;;11.50;;
18574;SDS011;9417;16.484;102.872;2022-10-16T03:32:05;15.80;;;11.13;;
18574;SDS011;9417;16.484;102.872;2022-10-16T03:34:12;13.00;;;10.15;;
18574;SDS011;9417;16.484;102.872;2022-10-16T03:36:20;15.70;;;11.20;;
18574;SDS011;9417;16.484;102.872;2022-10-16T03:38:28;15.90;;;10.65;;
18574;SDS011;9417;16.484;102.872;2022-10-16T03:40:35;17.65;;;12.25;;
18574;SDS011;9417;16.484;102.872;2022-10-16T03:42:42;16.42;;;11.45;;
18574;SDS011;9417;16.484;102.872;2022-10-16T03:44:49;14.10;;;10.60;;
18574;SDS011;9417;16.484;102.872;2022-10-16T03:46:56;15.88;;;11.00;;
18574;SDS011;9417;16.484;102.872;2022-10-16T03:49:03;18.30;;;11.13;;
18574;SDS011;9417;16.484;102.872;2022-10-16T03:51:11;17.42;;;11.77;;
18574;SDS011;9417;16.484;102.872;2022-10-16T03:53:20;19.08;;;12.02;;
18574;SDS011;9417;16.484;102.872;2022-10-16T03:55:27;19.30;;;12.05;;
18574;SDS011;9417;16.484;102.872;2022-10-16T03:57:34;17.27;;;11.73;;
18574;SDS011;9417;16.484;102.872;2022-10-16T03:59:41;16.92;;;12.65;;
18574;SDS011;9417;16.484;102.872;2022-10-16T04:01:48;17.65;;;11.85;;
18574;SDS011;9417;16.484;102.872;2022-10-16T04:03:55;17.60;;;10.85;;
18574;SDS011;9417;16.484;102.872;2022-10-16T04:06:02;15.95;;;11.68;;
18574;SDS011;9417;16.484;102.872;2022-10-16T04:08:09;16.52;;;11.40;;
18574;SDS011;9417;16.484;102.872;2022-10-16T04:10:18;15.70;;;11.13;;
18574;SDS011;9417;16.484;102.872;2022-10-16T04:12:25;16.85;;;12.43;;
18574;SDS011;9417;16.484;102.872;2022-10-16T04:14:33;15.40;;;11.65;;
18574;SDS011;9417;16.484;102.872;2022-10-16T04:16:39;17.20;;;11.80;;
18574;SDS011;9417;16.484;102.872;2022-10-16T04:18:46;17.40;;;10.93;;
18574;SDS011;9417;16.484;102.872;2022-10-16T04:20:54;18.50;;;11.93;;
18574;SDS011;9417;16.484;102.872;2022-10-16T04:23:00;14.68;;;11.07;;
18574;SDS011;9417;16.484;102.872;2022-10-16T04:25:08;14.82;;;10.73;;
18574;SDS011;9417;16.484;102.872;2022-10-16T04:27:17;15.63;;;10.60;;
18574;SDS011;9417;16.484;102.872;2022-10-16T04:29:24;16.63;;;11.32;;
18574;SDS011;9417;16.484;102.872;2022-10-16T04:31:31;16.95;;;12.00;;
18574;SDS011;9417;16.484;102.872;2022-10-16T04:33:38;16.13;;;11.55;;
18574;SDS011;9417;16.484;102.872;2022-10-16T04:35:47;15.13;;;12.60;;
18574;SDS011;9417;16.484;102.872;2022-10-16T04:38:01;17.25;;;11.40;;
18574;SDS011;9417;16.484;102.872;2022-10-16T04:40:08;17.13;;;10.82;;
18574;SDS011;9417;16.484;102.872;2022-10-16T04:42:18;17.48;;;10.65;;
18574;SDS011;9417;16.484;102.872;2022-10-16T04:44:25;14.82;;;10.85;;
18574;SDS011;9417;16.484;102.872;2022-10-16T04:46:32;12.80;;;10.38;;
18574;SDS011;9417;16.484;102.872;2022-10-16T04:48:39;14.05;;;10.98;;
18574;SDS011;9417;16.484;102.872;2022-10-16T04:50:46;16.25;;;11.23;;
18574;SDS011;9417;16.484;102.872;2022-10-16T04:52:56;14.73;;;11.45;;
18574;SDS011;9417;16.484;102.872;2022-10-16T04:55:04;14.40;;;10.60;;
18574;SDS011;9417;16.484;102.872;2022-10-16T04:57:12;17.23;;;11.00;;
18574;SDS011;9417;16.484;102.872;2022-10-16T04:59:21;15.45;;;11.60;;
18574;SDS011;9417;16.484;102.872;2022-10-16T05:01:28;14.27;;;12.23;;
18574;SDS011;9417;16.484;102.872;2022-10-16T05:03:35;15.25;;;11.70;;
18574;SDS011;9417;16.484;102.872;2022-10-16T05:05:42;16.38;;;11.90;;
18574;SDS011;9417;16.484;102.872;2022-10-16T05:07:50;17.92;;;12.07;;
18574;SDS011;9417;16.484;102.872;2022-10-16T05:09:58;17.90;;;12.68;;
18574;SDS011;9417;16.484;102.872;2022-10-16T05:12:05;16.65;;;11.85;;
18574;SDS011;9417;16.484;102.872;2022-10-16T05:14:12;19.98;;;12.73;;
18574;SDS011;9417;16.484;102.872;2022-10-16T05:16:20;16.60;;;12.30;;
18574;SDS011;9417;16.484;102.872;2022-10-16T05:18:27;15.63;;;11.73;;
18574;SDS011;9417;16.484;102.872;2022-10-16T05:20:35;16.80;;;11.07;;
18574;SDS011;9417;16.484;102.872;2022-10-16T05:22:42;18.08;;;11.27;;
18574;SDS011;9417;16.484;102.872;2022-10-16T05:24:49;15.85;;;11.30;;
18574;SDS011;9417;16.484;102.872;2022-10-16T05:26:56;17.58;;;12.45;;
18574;SDS011;9417;16.484;102.872;2022-10-16T05:29:03;18.67;;;12.07;;
18574;SDS011;9417;16.484;102.872;2022-10-16T05:31:10;14.75;;;11.95;;
18574;SDS011;9417;16.484;102.872;2022-10-16T05:33:19;14.55;;;11.63;;
18574;SDS011;9417;16.484;102.872;2022-10-16T05:35:26;16.00;;;11.75;;
18574;SDS011;9417;16.484;102.872;2022-10-16T05:37:33;15.93;;;12.30;;
18574;SDS011;9417;16.484;102.872;2022-10-16T05:39:41;15.65;;;12.00;;
18574;SDS011;9417;16.484;102.872;2022-10-16T05:41:49;13.75;;;11.52;;
18574;SDS011;9417;16.484;102.872;2022-10-16T05:43:56;16.85;;;10.70;;
18574;SDS011;9417;16.484;102.872;2022-10-16T05:46:04;16.55;;;11.40;;
18574;SDS011;9417;16.484;102.872;2022-10-16T05:48:11;14.65;;;11.43;;
18574;SDS011;9417;16.484;102.872;2022-10-16T05:50:20;17.60;;;12.07;;
18574;SDS011;9417;16.484;102.872;2022-10-16T05:52:27;16.98;;;12.13;;
18574;SDS011;9417;16.484;102.872;2022-10-16T05:54:34;16.20;;;12.27;;
18574;SDS011;9417;16.484;102.872;2022-10-16T05:56:40;15.35;;;11.52;;
18574;SDS011;9417;16.484;102.872;2022-10-16T05:58:48;13.85;;;11.10;;
18574;SDS011;9417;16.484;102.872;2022-10-16T06:00:55;17.77;;;11.55;;
18574;SDS011;9417;16.484;102.872;2022-10-16T06:03:03;16.38;;;11.70;;
18574;SDS011;9417;16.484;102.872;2022-10-16T06:05:10;15.45;;;11.55;;
18574;SDS011;9417;16.484;102.872;2022-10-16T06:07:19;15.70;;;11.63;;
18574;SDS011;9417;16.484;102.872;2022-10-16T06:09:27;15.55;;;12.65;;
18574;SDS011;9417;16.484;102.872;2022-10-16T06:11:33;13.02;;;11.63;;
18574;SDS011;9417;16.484;102.872;2022-10-16T06:13:42;18.58;;;12.32;;
18574;SDS011;9417;16.484;102.872;2022-10-16T06:15:49;17.73;;;11.85;;
18574;SDS011;9417;16.484;102.872;2022-10-16T06:17:56;18.73;;;12.07;;
18574;SDS011;9417;16.484;102.872;2022-10-16T06:20:03;15.85;;;11.45;;
18574;SDS011;9417;16.484;102.872;2022-10-16T06:22:11;15.68;;;11.90;;
18574;SDS011;9417;16.484;102.872;2022-10-16T06:24:20;17.35;;;12.45;;
18574;SDS011;9417;16.484;102.872;2022-10-16T06:26:28;17.05;;;11.93;;
18574;SDS011;9417;16.484;102.872;2022-10-16T06:28:36;17.27;;;11.07;;
18574;SDS011;9417;16.484;102.872;2022-10-16T06:30:43;13.75;;;11.80;;
18574;SDS011;9417;16.484;102.872;2022-10-16T06:32:50;15.52;;;11.52;;
18574;SDS011;9417;16.484;102.872;2022-10-16T06:35:02;18.48;;;11.18;;
18574;SDS011;9417;16.484;102.872;2022-10-16T06:37:09;14.15;;;10.45;;
18574;SDS011;9417;16.484;102.872;2022-10-16T06:39:16;14.18;;;10.50;;
18574;SDS011;9417;16.484;102.872;2022-10-16T06:41:25;14.48;;;10.40;;
18574;SDS011;9417;16.484;102.872;2022-10-16T06:43:39;12.30;;;9.82;;
18574;SDS011;9417;16.484;102.872;2022-10-16T06:45:50;13.05;;;10.77;;
18574;SDS011;9417;16.484;102.872;2022-10-16T06:47:58;14.90;;;11.10;;
18574;SDS011;9417;16.484;102.872;2022-10-16T06:50:05;15.48;;;10.63;;
18574;SDS011;9417;16.484;102.872;2022-10-16T06:52:13;14.90;;;10.35;;
18574;SDS011;9417;16.484;102.872;2022-10-16T06:54:22;14.00;;;9.75;;
18574;SDS011;9417;16.484;102.872;2022-10-16T06:56:29;13.15;;;9.52;;
18574;SDS011;9417;16.484;102.872;2022-10-16T06:58:36;13.18;;;10.43;;
18574;SDS011;9417;16.484;102.872;2022-10-16T07:00:44;13.65;;;10.55;;
18574;SDS011;9417;16.484;102.872;2022-10-16T07:02:51;15.68;;;10.32;;
18574;SDS011;9417;16.484;102.872;2022-10-16T07:04:58;11.65;;;9.30;;
18574;SDS011;9417;16.484;102.872;2022-10-16T07:07:05;13.38;;;10.75;;
18574;SDS011;9417;16.484;102.872;2022-10-16T07:09:12;14.38;;;11.13;;
18574;SDS011;9417;16.484;102.872;2022-10-16T07:11:21;14.60;;;11.10;;
18574;SDS011;9417;16.484;102.872;2022-10-16T07:13:29;12.77;;;10.32;;
18574;SDS011;9417;16.484;102.872;2022-10-16T07:15:38;15.45;;;10.95;;
18574;SDS011;9417;16.484;102.872;2022-10-16T07:17:45;14.30;;;11.00;;
18574;SDS011;9417;16.484;102.872;2022-10-16T07:19:52;12.95;;;10.20;;
18574;SDS011;9417;16.484;102.872;2022-10-16T07:21:59;12.73;;;10.43;;
18574;SDS011;9417;16.484;102.872;2022-10-16T07:24:07;13.57;;;10.90;;
18574;SDS011;9417;16.484;102.872;2022-10-16T07:26:17;14.98;;;10.55;;
18574;SDS011;9417;16.484;102.872;2022-10-16T07:28:26;15.23;;;11.05;;
18574;SDS011;9417;16.484;102.872;2022-10-16T07:30:34;15.38;;;11.40;;
18574;SDS011;9417;16.484;102.872;2022-10-16T07:32:42;15.38;;;11.48;;
18574;SDS011;9417;16.484;102.872;2022-10-16T07:34:49;16.00;;;11.15;;
18574;SDS011;9417;16.484;102.872;2022-10-16T07:36:56;14.50;;;10.68;;
18574;SDS011;9417;16.484;102.872;2022-10-16T07:39:03;13.85;;;10.85;;
18574;SDS011;9417;16.484;102.872;2022-10-16T07:41:11;12.10;;;9.65;;
18574;SDS011;9417;16.484;102.872;2022-10-16T07:43:19;14.55;;;10.90;;
18574;SDS011;9417;16.484;102.872;2022-10-16T07:45:28;13.90;;;10.95;;
18574;SDS011;9417;16.484;102.872;2022-10-16T07:47:35;14.23;;;11.07;;
18574;SDS011;9417;16.484;102.872;2022-10-16T07:49:42;13.32;;;10.80;;
18574;SDS011;9417;16.484;102.872;2022-10-16T07:51:49;14.02;;;10.98;;
18574;SDS011;9417;16.484;102.872;2022-10-16T07:53:56;16.23;;;11.35;;
18574;SDS011;9417;16.484;102.872;2022-10-16T07:56:03;13.75;;;10.43;;
18574;SDS011;9417;16.484;102.872;2022-10-16T07:58:12;15.55;;;11.35;;
18574;SDS011;9417;16.484;102.872;2022-10-16T08:00:19;16.90;;;11.63;;
18574;SDS011;9417;16.484;102.872;2022-10-16T08:02:27;14.70;;;11.27;;
18574;SDS011;9417;16.484;102.872;2022-10-16T08:04:34;17.52;;;11.73;;
18574;SDS011;9417;16.484;102.872;2022-10-16T08:06:41;15.15;;;12.10;;
18574;SDS011;9417;16.484;102.872;2022-10-16T08:08:49;14.95;;;12.18;;
18574;SDS011;9417;16.484;102.872;2022-10-16T08:10:56;15.98;;;11.80;;
18574;SDS011;9417;16.484;102.872;2022-10-16T08:13:03;16.23;;;12.48;;
18574;SDS011;9417;16.484;102.872;2022-10-16T08:15:10;20.00;;;12.98;;
18574;SDS011;9417;16.484;102.872;2022-10-16T08:17:17;18.02;;;12.40;;
18574;SDS011;9417;16.484;102.872;2022-10-16T08:19:27;15.38;;;11.82;;
18574;SDS011;9417;16.484;102.872;2022-10-16T08:21:35;15.63;;;11.80;;
18574;SDS011;9417;16.484;102.872;2022-10-16T08:23:42;15.30;;;12.23;;
18574;SDS011;9417;16.484;102.872;2022-10-16T08:25:52;17.15;;;12.02;;
18574;SDS011;9417;16.484;102.872;2022-10-16T08:28:00;17.13;;;11.73;;
18574;SDS011;9417;16.484;102.872;2022-10-16T08:30:10;16.95;;;12.65;;
18574;SDS011;9417;16.484;102.872;2022-10-16T08:32:17;15.25;;;12.23;;
18574;SDS011;9417;16.484;102.872;2022-10-16T08:34:30;17.30;;;12.77;;
18574;SDS011;9417;16.484;102.872;2022-10-16T08:36:37;17.73;;;13.00;;
18574;SDS011;9417;16.484;102.872;2022-10-16T08:38:47;15.77;;;12.43;;
18574;SDS011;9417;16.484;102.872;2022-10-16T08:41:00;16.70;;;12.82;;
18574;SDS011;9417;16.484;102.872;2022-10-16T08:43:22;17.95;;;13.07;;
18574;SDS011;9417;16.484;102.872;2022-10-16T08:45:40;15.95;;;12.45;;
18574;SDS011;9417;16.484;102.872;2022-10-16T08:47:56;15.77;;;12.57;;
18574;SDS011;9417;16.484;102.872;2022-10-16T08:50:17;16.77;;;11.82;;
18574;SDS011;9417;16.484;102.872;2022-10-16T08:52:29;15.65;;;12.07;;
18574;SDS011;9417;16.484;102.872;2022-10-16T08:54:39;16.25;;;12.20;;
18574;SDS011;9417;16.484;102.872;2022-10-16T08:56:50;18.90;;;12.02;;
18574;SDS011;9417;16.484;102.872;2022-10-16T08:58:59;16.23;;;12.25;;
18574;SDS011;9417;16.484;102.872;2022-10-16T09:01:10;16.13;;;12.13;;
18574;SDS011;9417;16.484;102.872;2022-10-16T09:03:23;15.48;;;11.98;;
18574;SDS011;9417;16.484;102.872;2022-10-16T09:05:46;17.63;;;12.40;;
18574;SDS011;9417;16.484;102.872;2022-10-16T09:08:05;14.30;;;12.18;;
18574;SDS011;9417;16.484;102.872;2022-10-16T09:10:26;15.30;;;13.05;;
18574;SDS011;9417;16.484;102.872;2022-10-16T09:12:43;17.55;;;12.50;;
18574;SDS011;9417;16.484;102.872;2022-10-16T09:14:59;17.10;;;12.35;;
18574;SDS011;9417;16.484;102.872;2022-10-16T09:17:17;15.85;;;12.15;;
18574;SDS011;9417;16.484;102.872;2022-10-16T09:19:33;16.92;;;12.80;;
18574;SDS011;9417;16.484;102.872;2022-10-16T09:21:48;15.13;;;11.48;;
18574;SDS011;9417;16.484;102.872;2022-10-16T09:23:57;17.33;;;13.32;;
18574;SDS011;9417;16.484;102.872;2022-10-16T09:26:11;13.18;;;11.70;;
18574;SDS011;9417;16.484;102.872;2022-10-16T09:28:21;16.02;;;12.40;;
18574;SDS011;9417;16.484;102.872;2022-10-16T09:30:28;16.83;;;13.00;;
18574;SDS011;9417;16.484;102.872;2022-10-16T09:32:36;14.95;;;12.65;;
18574;SDS011;9417;16.484;102.872;2022-10-16T09:34:47;19.33;;;13.10;;
18574;SDS011;9417;16.484;102.872;2022-10-16T09:36:59;17.63;;;13.05;;
18574;SDS011;9417;16.484;102.872;2022-10-16T09:41:16;18.27;;;13.70;;
18574;SDS011;9417;16.484;102.872;2022-10-16T09:43:26;19.05;;;12.10;;
18574;SDS011;9417;16.484;102.872;2022-10-16T09:47:44;14.07;;;11.82;;
18574;SDS011;9417;16.484;102.872;2022-10-16T09:49:57;15.10;;;12.57;;
18574;SDS011;9417;16.484;102.872;2022-10-16T09:52:11;16.50;;;13.00;;
18574;SDS011;9417;16.484;102.872;2022-10-16T09:54:20;17.38;;;13.35;;
18574;SDS011;9417;16.484;102.872;2022-10-16T09:56:27;18.05;;;11.85;;
18574;SDS011;9417;16.484;102.872;2022-10-16T09:58:35;15.73;;;12.65;;
18574;SDS011;9417;16.484;102.872;2022-10-16T10:00:48;14.52;;;11.88;;
18574;SDS011;9417;16.484;102.872;2022-10-16T10:02:56;14.10;;;12.43;;
18574;SDS011;9417;16.484;102.872;2022-10-16T10:05:04;16.65;;;12.43;;
18574;SDS011;9417;16.484;102.872;2022-10-16T10:07:26;17.77;;;12.35;;
18574;SDS011;9417;16.484;102.872;2022-10-16T10:09:37;14.63;;;12.35;;
18574;SDS011;9417;16.484;102.872;2022-10-16T10:11:50;16.25;;;12.93;;
18574;SDS011;9417;16.484;102.872;2022-10-16T10:14:03;19.23;;;12.70;;
18574;SDS011;9417;16.484;102.872;2022-10-16T10:16:11;16.88;;;13.68;;
18574;SDS011;9417;16.484;102.872;2022-10-16T10:18:28;19.02;;;13.85;;
18574;SDS011;9417;16.484;102.872;2022-10-16T10:20:36;19.98;;;13.63;;
18574;SDS011;9417;16.484;102.872;2022-10-16T10:22:45;16.80;;;13.73;;
18574;SDS011;9417;16.484;102.872;2022-10-16T10:24:56;18.88;;;14.27;;
18574;SDS011;9417;16.484;102.872;2022-10-16T10:27:17;17.88;;;13.38;;
18574;SDS011;9417;16.484;102.872;2022-10-16T10:29:30;17.65;;;14.00;;
18574;SDS011;9417;16.484;102.872;2022-10-16T10:31:49;18.17;;;14.25;;
18574;SDS011;9417;16.484;102.872;2022-10-16T10:34:06;19.45;;;14.02;;
18574;SDS011;9417;16.484;102.872;2022-10-16T10:36:32;17.00;;;14.40;;
18574;SDS011;9417;16.484;102.872;2022-10-16T10:38:45;19.00;;;13.48;;
18574;SDS011;9417;16.484;102.872;2022-10-16T10:40:58;17.65;;;13.95;;
18574;SDS011;9417;16.484;102.872;2022-10-16T10:43:21;18.80;;;13.85;;
18574;SDS011;9417;16.484;102.872;2022-10-16T10:45:37;19.00;;;14.25;;
18574;SDS011;9417;16.484;102.872;2022-10-16T10:47:52;16.38;;;13.77;;
18574;SDS011;9417;16.484;102.872;2022-10-16T10:50:13;18.40;;;14.20;;
18574;SDS011;9417;16.484;102.872;2022-10-16T10:52:41;16.90;;;13.68;;
18574;SDS011;9417;16.484;102.872;2022-10-16T10:54:55;16.65;;;13.95;;
18574;SDS011;9417;16.484;102.872;2022-10-16T10:57:14;19.80;;;14.13;;
18574;SDS011;9417;16.484;102.872;2022-10-16T11:02:09;16.90;;;14.18;;
18574;SDS011;9417;16.484;102.872;2022-10-16T11:04:29;18.67;;;14.82;;
18574;SDS011;9417;16.484;102.872;2022-10-16T11:07:05;17.45;;;14.13;;
18574;SDS011;9417;16.484;102.872;2022-10-16T11:09:17;18.77;;;15.13;;
18574;SDS011;9417;16.484;102.872;2022-10-16T11:11:32;18.33;;;14.35;;
18574;SDS011;9417;16.484;102.872;2022-10-16T11:15:50;19.42;;;14.45;;
18574;SDS011;9417;16.484;102.872;2022-10-16T11:18:02;18.02;;;14.80;;
18574;SDS011;9417;16.484;102.872;2022-10-16T11:20:13;20.60;;;14.68;;
18574;SDS011;9417;16.484;102.872;2022-10-16T11:24:35;16.55;;;14.35;;
18574;SDS011;9417;16.484;102.872;2022-10-16T11:26:50;20.73;;;15.13;;
18574;SDS011;9417;16.484;102.872;2022-10-16T11:28:59;18.93;;;15.03;;
18574;SDS011;9417;16.484;102.872;2022-10-16T11:31:11;19.52;;;15.52;;
18574;SDS011;9417;16.484;102.872;2022-10-16T11:33:28;18.67;;;15.00;;
18574;SDS011;9417;16.484;102.872;2022-10-16T11:35:41;20.88;;;15.70;;
18574;SDS011;9417;16.484;102.872;2022-10-16T11:39:59;20.95;;;16.65;;
18574;SDS011;9417;16.484;102.872;2022-10-16T11:42:22;19.48;;;15.95;;
18574;SDS011;9417;16.484;102.872;2022-10-16T11:44:45;21.17;;;16.23;;
18574;SDS011;9417;16.484;102.872;2022-10-16T11:47:03;20.95;;;16.45;;
18574;SDS011;9417;16.484;102.872;2022-10-16T11:49:38;23.33;;;17.35;;
18574;SDS011;9417;16.484;102.872;2022-10-16T11:51:48;22.13;;;17.20;;
18574;SDS011;9417;16.484;102.872;2022-10-16T11:54:03;28.00;;;20.75;;
18574;SDS011;9417;16.484;102.872;2022-10-16T11:56:20;25.25;;;20.42;;
18574;SDS011;9417;16.484;102.872;2022-10-16T11:58:31;31.45;;;22.10;;
18574;SDS011;9417;16.484;102.872;2022-10-16T12:00:45;24.92;;;20.50;;
18574;SDS011;9417;16.484;102.872;2022-10-16T12:02:59;23.80;;;18.80;;
18574;SDS011;9417;16.484;102.872;2022-10-16T12:05:22;25.00;;;18.67;;
18574;SDS011;9417;16.484;102.872;2022-10-16T12:07:36;25.85;;;18.85;;
18574;SDS011;9417;16.484;102.872;2022-10-16T12:09:48;25.00;;;19.60;;
18574;SDS011;9417;16.484;102.872;2022-10-16T12:11:56;24.60;;;19.17;;
18574;SDS011;9417;16.484;102.872;2022-10-16T12:14:07;25.60;;;19.38;;
18574;SDS011;9417;16.484;102.872;2022-10-16T12:16:52;24.00;;;19.52;;
18574;SDS011;9417;16.484;102.872;2022-10-16T12:19:11;25.77;;;21.08;;
18574;SDS011;9417;16.484;102.872;2022-10-16T12:21:19;25.83;;;19.60;;
18574;SDS011;9417;16.484;102.872;2022-10-16T12:23:37;25.15;;;19.95;;
18574;SDS011;9417;16.484;102.872;2022-10-16T12:25:54;26.13;;;20.90;;
18574;SDS011;9417;16.484;102.872;2022-10-16T12:28:02;29.55;;;21.65;;
18574;SDS011;9417;16.484;102.872;2022-10-16T12:30:20;30.67;;;22.13;;
18574;SDS011;9417;16.484;102.872;2022-10-16T12:32:34;28.27;;;21.98;;
18574;SDS011;9417;16.484;102.872;2022-10-16T12:34:49;28.75;;;22.92;;
18574;SDS011;9417;16.484;102.872;2022-10-16T12:36:56;29.25;;;21.73;;
18574;SDS011;9417;16.484;102.872;2022-10-16T12:39:20;28.45;;;22.73;;
18574;SDS011;9417;16.484;102.872;2022-10-16T12:41:29;32.63;;;24.38;;
18574;SDS011;9417;16.484;102.872;2022-10-16T12:43:37;29.10;;;23.85;;
18574;SDS011;9417;16.484;102.872;2022-10-16T12:45:49;29.50;;;23.67;;